sensor_id;sensor_type;location;lat;lon;timestamp;temperature;humidity
27633;DHT22;15046;50.930;13.334;2023-08-01T00:01:32;16.50;99.90
27633;DHT22;15046;50.930;13.334;2023-08-01T00:03:58;16.50;99.90
27633;DHT22;15046;50.930;13.334;2023-08-01T00:06:24;16.50;99.90
27633;DHT22;15046;50.930;13.334;2023-08-01T00:08:51;16.50;99.90
27633;DHT22;15046;50.930;13.334;2023-08-01T00:11:17;16.50;99.90
27633;DHT22;15046;50.930;13.334;2023-08-01T00:13:43;16.40;99.90
27633;DHT22;15046;50.930;13.334;2023-08-01T00:16:09;16.40;99.90
27633;DHT22;15046;50.930;13.334;2023-08-01T00:18:35;16.40;99.90
27633;DHT22;15046;50.930;13.334;2023-08-01T00:21:02;16.30;99.90
27633;DHT22;15046;50.930;13.334;2023-08-01T00:23:28;16.40;99.90
27633;DHT22;15046;50.930;13.334;2023-08-01T00:25:53;16.30;99.90
27633;DHT22;15046;50.930;13.334;2023-08-01T00:28:19;16.40;99.90
27633;DHT22;15046;50.930;13.334;2023-08-01T00:30:45;16.40;99.90
27633;DHT22;15046;50.930;13.334;2023-08-01T00:33:11;16.50;99.90
27633;DHT22;15046;50.930;13.334;2023-08-01T00:35:37;16.50;99.90
27633;DHT22;15046;50.930;13.334;2023-08-01T00:38:02;16.50;99.90
27633;DHT22;15046;50.930;13.334;2023-08-01T00:40:31;16.60;99.90
27633;DHT22;15046;50.930;13.334;2023-08-01T00:42:57;16.80;99.90
27633;DHT22;15046;50.930;13.334;2023-08-01T00:45:27;16.90;99.90
27633;DHT22;15046;50.930;13.334;2023-08-01T00:47:54;17.00;99.90
27633;DHT22;15046;50.930;13.334;2023-08-01T00:50:21;17.10;99.90
27633;DHT22;15046;50.930;13.334;2023-08-01T00:52:51;17.10;99.90
27633;DHT22;15046;50.930;13.334;2023-08-01T00:55:18;17.10;99.90
27633;DHT22;15046;50.930;13.334;2023-08-01T00:57:44;17.00;99.90
27633;DHT22;15046;50.930;13.334;2023-08-01T01:00:10;17.00;99.90
27633;DHT22;15046;50.930;13.334;2023-08-01T01:02:37;17.00;99.90
27633;DHT22;15046;50.930;13.334;2023-08-01T01:05:03;16.90;99.90
27633;DHT22;15046;50.930;13.334;2023-08-01T01:07:29;16.90;99.90
27633;DHT22;15046;50.930;13.334;2023-08-01T01:09:57;16.70;99.90
27633;DHT22;15046;50.930;13.334;2023-08-01T01:12:23;16.50;99.90
27633;DHT22;15046;50.930;13.334;2023-08-01T01:14:49;16.30;99.90
27633;DHT22;15046;50.930;13.334;2023-08-01T01:17:14;16.20;99.90
27633;DHT22;15046;50.930;13.334;2023-08-01T01:19:40;16.10;99.90
27633;DHT22;15046;50.930;13.334;2023-08-01T01:22:07;16.10;99.90
27633;DHT22;15046;50.930;13.334;2023-08-01T01:24:35;16.10;99.90
27633;DHT22;15046;50.930;13.334;2023-08-01T01:27:04;16.10;99.90
27633;DHT22;15046;50.930;13.334;2023-08-01T01:29:32;16.20;99.90
27633;DHT22;15046;50.930;13.334;2023-08-01T01:32:00;16.20;99.90
27633;DHT22;15046;50.930;13.334;2023-08-01T01:34:28;16.30;99.90
27633;DHT22;15046;50.930;13.334;2023-08-01T01:36:53;16.30;99.90
27633;DHT22;15046;50.930;13.334;2023-08-01T01:39:20;16.20;99.90
27633;DHT22;15046;50.930;13.334;2023-08-01T01:41:46;16.20;99.90
27633;DHT22;15046;50.930;13.334;2023-08-01T01:44:12;16.10;99.90
27633;DHT22;15046;50.930;13.334;2023-08-01T01:46:38;16.10;99.90
27633;DHT22;15046;50.930;13.334;2023-08-01T01:49:04;16.00;99.90
27633;DHT22;15046;50.930;13.334;2023-08-01T01:51:30;16.00;99.90
27633;DHT22;15046;50.930;13.334;2023-08-01T01:53:56;16.00;99.90
27633;DHT22;15046;50.930;13.334;2023-08-01T01:56:22;15.90;99.90
27633;DHT22;15046;50.930;13.334;2023-08-01T01:58:48;15.90;99.90
27633;DHT22;15046;50.930;13.334;2023-08-01T02:01:14;15.90;99.90
27633;DHT22;15046;50.930;13.334;2023-08-01T02:03:40;15.90;99.90
27633;DHT22;15046;50.930;13.334;2023-08-01T02:06:05;15.90;99.90
27633;DHT22;15046;50.930;13.334;2023-08-01T02:08:31;15.80;99.90
27633;DHT22;15046;50.930;13.334;2023-08-01T02:10:59;15.80;99.90
27633;DHT22;15046;50.930;13.334;2023-08-01T02:13:26;15.80;99.90
27633;DHT22;15046;50.930;13.334;2023-08-01T02:15:53;15.70;99.90
27633;DHT22;15046;50.930;13.334;2023-08-01T02:18:19;15.70;99.90
27633;DHT22;15046;50.930;13.334;2023-08-01T02:20:45;15.70;99.90
27633;DHT22;15046;50.930;13.334;2023-08-01T02:23:11;15.70;99.90
27633;DHT22;15046;50.930;13.334;2023-08-01T02:25:41;15.60;99.90
27633;DHT22;15046;50.930;13.334;2023-08-01T02:28:07;15.60;99.90
27633;DHT22;15046;50.930;13.334;2023-08-01T02:30:34;15.60;99.90
27633;DHT22;15046;50.930;13.334;2023-08-01T02:32:59;15.60;99.90
27633;DHT22;15046;50.930;13.334;2023-08-01T02:35:25;15.60;99.90
27633;DHT22;15046;50.930;13.334;2023-08-01T02:37:52;15.60;99.90
27633;DHT22;15046;50.930;13.334;2023-08-01T02:40:17;15.60;99.90
27633;DHT22;15046;50.930;13.334;2023-08-01T02:42:43;15.60;99.90
27633;DHT22;15046;50.930;13.334;2023-08-01T02:45:09;15.60;99.90
27633;DHT22;15046;50.930;13.334;2023-08-01T02:47:35;15.60;99.90
27633;DHT22;15046;50.930;13.334;2023-08-01T02:50:00;15.50;99.90
27633;DHT22;15046;50.930;13.334;2023-08-01T02:52:27;15.50;99.90
27633;DHT22;15046;50.930;13.334;2023-08-01T02:54:53;15.50;99.90
27633;DHT22;15046;50.930;13.334;2023-08-01T02:57:19;15.50;99.90
27633;DHT22;15046;50.930;13.334;2023-08-01T02:59:45;15.50;99.90
27633;DHT22;15046;50.930;13.334;2023-08-01T03:02:10;15.50;99.90
27633;DHT22;15046;50.930;13.334;2023-08-01T03:04:36;15.50;99.90
27633;DHT22;15046;50.930;13.334;2023-08-01T03:07:02;15.50;99.90
27633;DHT22;15046;50.930;13.334;2023-08-01T03:09:28;15.50;99.90
27633;DHT22;15046;50.930;13.334;2023-08-01T03:11:53;15.50;99.90
27633;DHT22;15046;50.930;13.334;2023-08-01T03:14:19;15.50;99.90
27633;DHT22;15046;50.930;13.334;2023-08-01T03:16:45;15.50;99.90
27633;DHT22;15046;50.930;13.334;2023-08-01T03:19:11;15.50;99.90
27633;DHT22;15046;50.930;13.334;2023-08-01T03:21:36;15.50;99.90
27633;DHT22;15046;50.930;13.334;2023-08-01T03:24:03;15.50;99.90
27633;DHT22;15046;50.930;13.334;2023-08-01T03:26:29;15.50;99.90
27633;DHT22;15046;50.930;13.334;2023-08-01T03:28:55;15.50;99.90
27633;DHT22;15046;50.930;13.334;2023-08-01T03:31:22;15.40;99.90
27633;DHT22;15046;50.930;13.334;2023-08-01T03:33:49;15.50;99.90
27633;DHT22;15046;50.930;13.334;2023-08-01T03:36:14;15.50;99.90
27633;DHT22;15046;50.930;13.334;2023-08-01T03:38:40;15.50;99.90
27633;DHT22;15046;50.930;13.334;2023-08-01T03:41:06;15.50;99.90
27633;DHT22;15046;50.930;13.334;2023-08-01T03:43:32;15.50;99.90
27633;DHT22;15046;50.930;13.334;2023-08-01T03:45:57;15.50;99.90
27633;DHT22;15046;50.930;13.334;2023-08-01T03:48:23;15.50;99.90
27633;DHT22;15046;50.930;13.334;2023-08-01T03:50:49;15.50;99.90
27633;DHT22;15046;50.930;13.334;2023-08-01T03:53:15;15.50;99.90
27633;DHT22;15046;50.930;13.334;2023-08-01T03:55:41;15.60;99.90
27633;DHT22;15046;50.930;13.334;2023-08-01T03:58:08;15.60;99.90
27633;DHT22;15046;50.930;13.334;2023-08-01T04:00:33;15.50;99.90
27633;DHT22;15046;50.930;13.334;2023-08-01T04:03:00;15.60;99.90
27633;DHT22;15046;50.930;13.334;2023-08-01T04:05:27;15.60;99.90
27633;DHT22;15046;50.930;13.334;2023-08-01T04:07:54;15.60;99.90
27633;DHT22;15046;50.930;13.334;2023-08-01T04:10:24;15.60;99.90
27633;DHT22;15046;50.930;13.334;2023-08-01T04:12:49;15.60;99.90
27633;DHT22;15046;50.930;13.334;2023-08-01T04:15:15;15.60;99.90
27633;DHT22;15046;50.930;13.334;2023-08-01T04:17:41;15.60;99.90
27633;DHT22;15046;50.930;13.334;2023-08-01T04:20:07;15.60;99.90
27633;DHT22;15046;50.930;13.334;2023-08-01T04:22:33;15.60;99.90
27633;DHT22;15046;50.930;13.334;2023-08-01T04:25:01;15.60;99.90
27633;DHT22;15046;50.930;13.334;2023-08-01T04:27:27;15.60;99.90
27633;DHT22;15046;50.930;13.334;2023-08-01T04:29:53;15.60;99.90
27633;DHT22;15046;50.930;13.334;2023-08-01T04:32:19;15.60;99.90
27633;DHT22;15046;50.930;13.334;2023-08-01T04:34:45;15.60;99.90
27633;DHT22;15046;50.930;13.334;2023-08-01T04:37:11;15.60;99.90
27633;DHT22;15046;50.930;13.334;2023-08-01T04:39:37;15.60;99.90
27633;DHT22;15046;50.930;13.334;2023-08-01T04:42:03;15.70;99.90
27633;DHT22;15046;50.930;13.334;2023-08-01T04:44:29;15.70;99.90
27633;DHT22;15046;50.930;13.334;2023-08-01T04:46:56;15.70;99.90
27633;DHT22;15046;50.930;13.334;2023-08-01T04:49:23;15.70;99.90
27633;DHT22;15046;50.930;13.334;2023-08-01T04:51:50;15.70;99.90
27633;DHT22;15046;50.930;13.334;2023-08-01T04:54:16;15.70;99.90
27633;DHT22;15046;50.930;13.334;2023-08-01T04:56:41;15.70;99.90
27633;DHT22;15046;50.930;13.334;2023-08-01T04:59:07;15.70;99.90
27633;DHT22;15046;50.930;13.334;2023-08-01T05:01:33;15.70;99.90
27633;DHT22;15046;50.930;13.334;2023-08-01T05:03:59;15.70;99.90
27633;DHT22;15046;50.930;13.334;2023-08-01T05:06:25;15.70;99.90
27633;DHT22;15046;50.930;13.334;2023-08-01T05:08:51;15.70;99.90
27633;DHT22;15046;50.930;13.334;2023-08-01T05:11:17;15.70;99.90
27633;DHT22;15046;50.930;13.334;2023-08-01T05:13:42;15.70;99.90
27633;DHT22;15046;50.930;13.334;2023-08-01T05:16:08;15.70;99.90
27633;DHT22;15046;50.930;13.334;2023-08-01T05:18:34;15.70;99.90
27633;DHT22;15046;50.930;13.334;2023-08-01T05:20:59;15.80;99.90
27633;DHT22;15046;50.930;13.334;2023-08-01T05:23:25;15.70;99.90
27633;DHT22;15046;50.930;13.334;2023-08-01T05:25:51;15.70;99.90
27633;DHT22;15046;50.930;13.334;2023-08-01T05:28:19;15.70;99.90
27633;DHT22;15046;50.930;13.334;2023-08-01T05:30:46;15.80;99.90
27633;DHT22;15046;50.930;13.334;2023-08-01T05:33:12;15.90;99.90
27633;DHT22;15046;50.930;13.334;2023-08-01T05:35:38;15.90;99.90
27633;DHT22;15046;50.930;13.334;2023-08-01T05:38:04;15.80;99.90
27633;DHT22;15046;50.930;13.334;2023-08-01T05:40:30;15.90;99.90
27633;DHT22;15046;50.930;13.334;2023-08-01T05:42:55;15.90;99.90
27633;DHT22;15046;50.930;13.334;2023-08-01T05:45:21;15.90;99.90
27633;DHT22;15046;50.930;13.334;2023-08-01T05:47:48;15.90;99.90
27633;DHT22;15046;50.930;13.334;2023-08-01T05:50:14;16.00;99.90
27633;DHT22;15046;50.930;13.334;2023-08-01T05:52:40;16.00;99.90
27633;DHT22;15046;50.930;13.334;2023-08-01T05:55:06;16.10;99.90
27633;DHT22;15046;50.930;13.334;2023-08-01T05:57:32;16.10;99.90
27633;DHT22;15046;50.930;13.334;2023-08-01T05:59:58;16.10;99.90
27633;DHT22;15046;50.930;13.334;2023-08-01T06:02:24;16.20;99.90
27633;DHT22;15046;50.930;13.334;2023-08-01T06:04:50;16.20;99.90
27633;DHT22;15046;50.930;13.334;2023-08-01T06:07:15;16.20;99.90
27633;DHT22;15046;50.930;13.334;2023-08-01T06:09:41;16.10;99.90
27633;DHT22;15046;50.930;13.334;2023-08-01T06:12:07;16.10;99.90
27633;DHT22;15046;50.930;13.334;2023-08-01T06:14:33;16.10;99.90
27633;DHT22;15046;50.930;13.334;2023-08-01T06:16:59;16.10;99.90
27633;DHT22;15046;50.930;13.334;2023-08-01T06:19:25;16.10;99.90
27633;DHT22;15046;50.930;13.334;2023-08-01T06:21:50;16.10;99.90
27633;DHT22;15046;50.930;13.334;2023-08-01T06:24:18;16.10;99.90
27633;DHT22;15046;50.930;13.334;2023-08-01T06:26:43;16.10;99.90
27633;DHT22;15046;50.930;13.334;2023-08-01T06:29:09;16.10;99.90
27633;DHT22;15046;50.930;13.334;2023-08-01T06:31:35;16.10;99.90
27633;DHT22;15046;50.930;13.334;2023-08-01T06:34:01;16.10;99.90
27633;DHT22;15046;50.930;13.334;2023-08-01T06:36:26;16.10;99.90
27633;DHT22;15046;50.930;13.334;2023-08-01T06:38:52;16.20;99.90
27633;DHT22;15046;50.930;13.334;2023-08-01T06:41:18;16.20;99.90
27633;DHT22;15046;50.930;13.334;2023-08-01T06:43:44;16.20;99.90
27633;DHT22;15046;50.930;13.334;2023-08-01T06:46:09;16.20;99.90
27633;DHT22;15046;50.930;13.334;2023-08-01T06:48:35;16.20;99.90
27633;DHT22;15046;50.930;13.334;2023-08-01T06:51:01;16.20;99.90
27633;DHT22;15046;50.930;13.334;2023-08-01T06:53:29;16.20;99.90
27633;DHT22;15046;50.930;13.334;2023-08-01T06:55:55;16.20;99.90
27633;DHT22;15046;50.930;13.334;2023-08-01T06:58:21;16.20;99.90
27633;DHT22;15046;50.930;13.334;2023-08-01T07:00:47;16.30;99.90
27633;DHT22;15046;50.930;13.334;2023-08-01T07:03:12;16.40;99.90
27633;DHT22;15046;50.930;13.334;2023-08-01T07:05:38;16.60;99.90
27633;DHT22;15046;50.930;13.334;2023-08-01T07:08:04;16.70;99.90
27633;DHT22;15046;50.930;13.334;2023-08-01T07:10:30;16.80;99.90
27633;DHT22;15046;50.930;13.334;2023-08-01T07:12:59;17.00;99.90
27633;DHT22;15046;50.930;13.334;2023-08-01T07:15:27;17.00;99.90
27633;DHT22;15046;50.930;13.334;2023-08-01T07:17:53;17.10;99.90
27633;DHT22;15046;50.930;13.334;2023-08-01T07:20:19;17.10;99.90
27633;DHT22;15046;50.930;13.334;2023-08-01T07:22:44;17.10;99.90
27633;DHT22;15046;50.930;13.334;2023-08-01T07:25:10;17.10;99.90
27633;DHT22;15046;50.930;13.334;2023-08-01T07:27:37;17.00;99.90
27633;DHT22;15046;50.930;13.334;2023-08-01T07:30:04;16.90;99.90
27633;DHT22;15046;50.930;13.334;2023-08-01T07:32:30;16.90;99.90
27633;DHT22;15046;50.930;13.334;2023-08-01T07:34:56;16.80;99.90
27633;DHT22;15046;50.930;13.334;2023-08-01T07:37:22;16.80;99.90
27633;DHT22;15046;50.930;13.334;2023-08-01T07:39:49;16.80;99.90
27633;DHT22;15046;50.930;13.334;2023-08-01T07:42:15;16.80;99.90
27633;DHT22;15046;50.930;13.334;2023-08-01T07:44:41;16.70;99.90
27633;DHT22;15046;50.930;13.334;2023-08-01T07:47:07;16.80;99.90
27633;DHT22;15046;50.930;13.334;2023-08-01T07:49:33;16.80;99.90
27633;DHT22;15046;50.930;13.334;2023-08-01T07:51:59;16.80;99.90
27633;DHT22;15046;50.930;13.334;2023-08-01T07:54:25;16.80;99.90
27633;DHT22;15046;50.930;13.334;2023-08-01T07:56:51;16.80;99.90
27633;DHT22;15046;50.930;13.334;2023-08-01T07:59:17;16.80;99.90
27633;DHT22;15046;50.930;13.334;2023-08-01T08:01:42;16.80;99.90
27633;DHT22;15046;50.930;13.334;2023-08-01T08:04:08;16.80;99.90
27633;DHT22;15046;50.930;13.334;2023-08-01T08:06:34;16.90;99.90
27633;DHT22;15046;50.930;13.334;2023-08-01T08:09:00;16.90;99.90
27633;DHT22;15046;50.930;13.334;2023-08-01T08:11:25;16.90;99.90
27633;DHT22;15046;50.930;13.334;2023-08-01T08:13:51;16.90;99.90
27633;DHT22;15046;50.930;13.334;2023-08-01T08:16:17;16.90;99.90
27633;DHT22;15046;50.930;13.334;2023-08-01T08:18:43;16.80;99.90
27633;DHT22;15046;50.930;13.334;2023-08-01T08:21:08;16.90;99.90
27633;DHT22;15046;50.930;13.334;2023-08-01T08:23:34;16.90;99.90
27633;DHT22;15046;50.930;13.334;2023-08-01T08:26:00;16.80;99.90
27633;DHT22;15046;50.930;13.334;2023-08-01T08:28:30;16.90;99.90
27633;DHT22;15046;50.930;13.334;2023-08-01T08:30:56;16.90;99.90
27633;DHT22;15046;50.930;13.334;2023-08-01T08:33:22;16.90;99.90
27633;DHT22;15046;50.930;13.334;2023-08-01T08:35:48;17.00;99.90
27633;DHT22;15046;50.930;13.334;2023-08-01T08:38:14;17.00;99.90
27633;DHT22;15046;50.930;13.334;2023-08-01T08:40:42;17.10;99.90
27633;DHT22;15046;50.930;13.334;2023-08-01T08:43:10;17.10;99.90
27633;DHT22;15046;50.930;13.334;2023-08-01T08:45:40;17.10;99.90
27633;DHT22;15046;50.930;13.334;2023-08-01T08:48:10;17.00;99.90
27633;DHT22;15046;50.930;13.334;2023-08-01T08:50:38;16.90;99.90
27633;DHT22;15046;50.930;13.334;2023-08-01T08:53:04;16.90;99.90
27633;DHT22;15046;50.930;13.334;2023-08-01T08:55:37;16.80;99.90
27633;DHT22;15046;50.930;13.334;2023-08-01T08:58:03;16.70;99.90
27633;DHT22;15046;50.930;13.334;2023-08-01T09:00:30;16.70;99.90
27633;DHT22;15046;50.930;13.334;2023-08-01T09:02:56;16.70;99.90
27633;DHT22;15046;50.930;13.334;2023-08-01T09:05:27;16.80;99.90
27633;DHT22;15046;50.930;13.334;2023-08-01T09:07:57;16.80;99.90
27633;DHT22;15046;50.930;13.334;2023-08-01T09:10:25;16.80;99.90
27633;DHT22;15046;50.930;13.334;2023-08-01T09:12:51;16.90;99.90
27633;DHT22;15046;50.930;13.334;2023-08-01T09:15:17;17.00;99.90
27633;DHT22;15046;50.930;13.334;2023-08-01T09:17:54;17.10;99.90
27633;DHT22;15046;50.930;13.334;2023-08-01T09:20:22;17.30;99.90
27633;DHT22;15046;50.930;13.334;2023-08-01T09:22:47;17.40;99.90
27633;DHT22;15046;50.930;13.334;2023-08-01T09:25:14;17.30;99.90
27633;DHT22;15046;50.930;13.334;2023-08-01T09:27:39;17.30;99.90
27633;DHT22;15046;50.930;13.334;2023-08-01T09:30:14;17.30;99.90
27633;DHT22;15046;50.930;13.334;2023-08-01T09:32:55;17.30;99.90
27633;DHT22;15046;50.930;13.334;2023-08-01T09:35:21;17.30;99.90
27633;DHT22;15046;50.930;13.334;2023-08-01T09:37:54;17.30;99.90
27633;DHT22;15046;50.930;13.334;2023-08-01T09:40:19;17.30;99.90
27633;DHT22;15046;50.930;13.334;2023-08-01T09:42:46;17.30;99.90
27633;DHT22;15046;50.930;13.334;2023-08-01T09:45:15;17.30;99.90
27633;DHT22;15046;50.930;13.334;2023-08-01T09:47:42;17.30;99.90
27633;DHT22;15046;50.930;13.334;2023-08-01T09:50:09;17.30;99.90
27633;DHT22;15046;50.930;13.334;2023-08-01T09:52:37;17.40;99.90
27633;DHT22;15046;50.930;13.334;2023-08-01T09:55:03;17.50;99.90
27633;DHT22;15046;50.930;13.334;2023-08-01T09:57:32;17.60;99.90
27633;DHT22;15046;50.930;13.334;2023-08-01T09:59:59;17.80;99.90
27633;DHT22;15046;50.930;13.334;2023-08-01T10:02:30;18.00;99.90
27633;DHT22;15046;50.930;13.334;2023-08-01T10:04:58;18.20;99.90
27633;DHT22;15046;50.930;13.334;2023-08-01T10:07:28;18.40;99.90
27633;DHT22;15046;50.930;13.334;2023-08-01T10:09:57;18.60;99.90
27633;DHT22;15046;50.930;13.334;2023-08-01T10:12:26;18.80;99.90
27633;DHT22;15046;50.930;13.334;2023-08-01T10:14:52;19.10;99.90
27633;DHT22;15046;50.930;13.334;2023-08-01T10:17:19;19.40;99.90
27633;DHT22;15046;50.930;13.334;2023-08-01T10:19:46;19.70;99.90
27633;DHT22;15046;50.930;13.334;2023-08-01T10:22:14;20.00;99.90
27633;DHT22;15046;50.930;13.334;2023-08-01T10:24:41;20.00;99.90
27633;DHT22;15046;50.930;13.334;2023-08-01T10:27:14;20.10;99.90
27633;DHT22;15046;50.930;13.334;2023-08-01T10:29:42;20.40;99.90
27633;DHT22;15046;50.930;13.334;2023-08-01T10:32:08;20.70;99.90
27633;DHT22;15046;50.930;13.334;2023-08-01T10:34:35;21.00;99.90
27633;DHT22;15046;50.930;13.334;2023-08-01T10:37:00;21.20;99.90
27633;DHT22;15046;50.930;13.334;2023-08-01T10:39:27;21.40;99.90
27633;DHT22;15046;50.930;13.334;2023-08-01T10:44:24;21.60;99.90
27633;DHT22;15046;50.930;13.334;2023-08-01T10:47:04;21.60;99.90
27633;DHT22;15046;50.930;13.334;2023-08-01T10:49:43;21.60;99.90
27633;DHT22;15046;50.930;13.334;2023-08-01T10:52:24;21.60;99.90
27633;DHT22;15046;50.930;13.334;2023-08-01T10:55:18;21.70;99.90
27633;DHT22;15046;50.930;13.334;2023-08-01T10:57:49;21.70;99.90
27633;DHT22;15046;50.930;13.334;2023-08-01T11:00:18;21.70;99.90
27633;DHT22;15046;50.930;13.334;2023-08-01T11:02:51;21.70;99.90
27633;DHT22;15046;50.930;13.334;2023-08-01T11:05:17;21.50;99.90
27633;DHT22;15046;50.930;13.334;2023-08-01T11:07:56;21.30;99.90
27633;DHT22;15046;50.930;13.334;2023-08-01T11:10:30;21.20;99.90
27633;DHT22;15046;50.930;13.334;2023-08-01T11:12:56;21.20;99.90
27633;DHT22;15046;50.930;13.334;2023-08-01T11:15:23;21.30;99.90
27633;DHT22;15046;50.930;13.334;2023-08-01T11:17:58;21.30;99.90
27633;DHT22;15046;50.930;13.334;2023-08-01T11:20:24;21.40;99.90
27633;DHT22;15046;50.930;13.334;2023-08-01T11:22:57;21.40;99.90
27633;DHT22;15046;50.930;13.334;2023-08-01T11:28:06;22.10;99.90
27633;DHT22;15046;50.930;13.334;2023-08-01T11:30:33;22.60;99.90
27633;DHT22;15046;50.930;13.334;2023-08-01T11:32:59;22.90;99.90
27633;DHT22;15046;50.930;13.334;2023-08-01T11:35:25;22.70;99.90
27633;DHT22;15046;50.930;13.334;2023-08-01T11:37:51;22.20;99.90
27633;DHT22;15046;50.930;13.334;2023-08-01T11:40:17;21.80;99.90
27633;DHT22;15046;50.930;13.334;2023-08-01T11:42:49;21.60;99.90
27633;DHT22;15046;50.930;13.334;2023-08-01T11:45:18;21.30;99.90
27633;DHT22;15046;50.930;13.334;2023-08-01T11:47:47;21.00;99.90
27633;DHT22;15046;50.930;13.334;2023-08-01T11:50:14;20.40;99.90
27633;DHT22;15046;50.930;13.334;2023-08-01T11:52:47;19.50;99.90
27633;DHT22;15046;50.930;13.334;2023-08-01T11:55:42;18.60;99.90
27633;DHT22;15046;50.930;13.334;2023-08-01T11:58:08;17.90;99.90
27633;DHT22;15046;50.930;13.334;2023-08-01T12:00:34;17.50;99.90
27633;DHT22;15046;50.930;13.334;2023-08-01T12:03:04;17.20;99.90
27633;DHT22;15046;50.930;13.334;2023-08-01T12:05:31;17.00;99.90
27633;DHT22;15046;50.930;13.334;2023-08-01T12:08:10;16.80;99.90
27633;DHT22;15046;50.930;13.334;2023-08-01T12:10:44;16.70;99.90
27633;DHT22;15046;50.930;13.334;2023-08-01T12:13:22;16.50;99.90
27633;DHT22;15046;50.930;13.334;2023-08-01T12:15:49;16.60;99.90
27633;DHT22;15046;50.930;13.334;2023-08-01T12:18:26;16.60;99.90
27633;DHT22;15046;50.930;13.334;2023-08-01T12:20:52;16.60;99.90
27633;DHT22;15046;50.930;13.334;2023-08-01T12:23:19;16.50;99.90
27633;DHT22;15046;50.930;13.334;2023-08-01T12:25:49;16.40;99.90
27633;DHT22;15046;50.930;13.334;2023-08-01T12:28:15;16.50;99.90
27633;DHT22;15046;50.930;13.334;2023-08-01T12:30:41;16.50;99.90
27633;DHT22;15046;50.930;13.334;2023-08-01T12:33:08;16.50;99.90
27633;DHT22;15046;50.930;13.334;2023-08-01T12:35:38;16.40;99.90
27633;DHT22;15046;50.930;13.334;2023-08-01T12:38:04;16.40;99.90
27633;DHT22;15046;50.930;13.334;2023-08-01T12:40:30;16.40;99.90
27633;DHT22;15046;50.930;13.334;2023-08-01T12:42:56;16.40;99.90
27633;DHT22;15046;50.930;13.334;2023-08-01T12:45:22;16.50;99.90
27633;DHT22;15046;50.930;13.334;2023-08-01T12:47:48;16.50;99.90
27633;DHT22;15046;50.930;13.334;2023-08-01T12:50:14;16.50;99.90
27633;DHT22;15046;50.930;13.334;2023-08-01T12:52:41;16.70;99.90
27633;DHT22;15046;50.930;13.334;2023-08-01T12:55:07;17.10;99.90
27633;DHT22;15046;50.930;13.334;2023-08-01T12:57:33;17.40;99.90
27633;DHT22;15046;50.930;13.334;2023-08-01T13:00:00;17.70;99.90
27633;DHT22;15046;50.930;13.334;2023-08-01T13:02:27;17.70;99.90
27633;DHT22;15046;50.930;13.334;2023-08-01T13:04:52;17.50;99.90
27633;DHT22;15046;50.930;13.334;2023-08-01T13:07:18;17.50;99.90
27633;DHT22;15046;50.930;13.334;2023-08-01T13:09:44;17.40;99.90
27633;DHT22;15046;50.930;13.334;2023-08-01T13:12:10;17.50;99.90
27633;DHT22;15046;50.930;13.334;2023-08-01T13:14:36;17.80;99.90
27633;DHT22;15046;50.930;13.334;2023-08-01T13:17:02;17.70;99.90
27633;DHT22;15046;50.930;13.334;2023-08-01T13:19:28;17.70;99.90
27633;DHT22;15046;50.930;13.334;2023-08-01T13:21:54;17.90;99.90
27633;DHT22;15046;50.930;13.334;2023-08-01T13:24:19;18.20;99.90
27633;DHT22;15046;50.930;13.334;2023-08-01T13:26:45;18.10;99.90
27633;DHT22;15046;50.930;13.334;2023-08-01T13:29:11;18.10;99.90
27633;DHT22;15046;50.930;13.334;2023-08-01T13:31:37;18.40;99.90
27633;DHT22;15046;50.930;13.334;2023-08-01T13:34:02;18.90;99.90
27633;DHT22;15046;50.930;13.334;2023-08-01T13:36:28;19.60;99.90
27633;DHT22;15046;50.930;13.334;2023-08-01T13:38:54;20.10;99.90
27633;DHT22;15046;50.930;13.334;2023-08-01T13:41:20;20.30;99.90
27633;DHT22;15046;50.930;13.334;2023-08-01T13:43:46;20.60;99.90
27633;DHT22;15046;50.930;13.334;2023-08-01T13:46:18;21.10;99.90
27633;DHT22;15046;50.930;13.334;2023-08-01T13:48:45;21.80;99.90
27633;DHT22;15046;50.930;13.334;2023-08-01T13:51:12;22.00;99.90
27633;DHT22;15046;50.930;13.334;2023-08-01T13:53:38;21.90;99.90
27633;DHT22;15046;50.930;13.334;2023-08-01T13:56:13;21.60;99.90
27633;DHT22;15046;50.930;13.334;2023-08-01T13:58:39;21.30;99.90
27633;DHT22;15046;50.930;13.334;2023-08-01T14:01:09;21.40;99.90
27633;DHT22;15046;50.930;13.334;2023-08-01T14:03:38;21.60;99.90
27633;DHT22;15046;50.930;13.334;2023-08-01T14:06:08;21.70;99.90
27633;DHT22;15046;50.930;13.334;2023-08-01T14:08:35;21.60;99.90
27633;DHT22;15046;50.930;13.334;2023-08-01T14:11:05;21.60;99.90
27633;DHT22;15046;50.930;13.334;2023-08-01T14:13:32;21.60;99.90
27633;DHT22;15046;50.930;13.334;2023-08-01T14:15:58;21.90;99.90
27633;DHT22;15046;50.930;13.334;2023-08-01T14:18:24;22.20;99.90
27633;DHT22;15046;50.930;13.334;2023-08-01T14:20:51;22.50;99.90
27633;DHT22;15046;50.930;13.334;2023-08-01T14:23:18;22.80;99.90
27633;DHT22;15046;50.930;13.334;2023-08-01T14:25:46;23.40;99.90
27633;DHT22;15046;50.930;13.334;2023-08-01T14:28:12;23.90;99.90
27633;DHT22;15046;50.930;13.334;2023-08-01T14:30:39;24.20;99.90
27633;DHT22;15046;50.930;13.334;2023-08-01T14:33:08;24.70;99.90
27633;DHT22;15046;50.930;13.334;2023-08-01T14:35:35;25.30;99.90
27633;DHT22;15046;50.930;13.334;2023-08-01T14:38:01;25.60;99.90
27633;DHT22;15046;50.930;13.334;2023-08-01T14:40:28;25.60;99.90
27633;DHT22;15046;50.930;13.334;2023-08-01T14:42:55;25.50;99.90
27633;DHT22;15046;50.930;13.334;2023-08-01T14:45:21;25.10;99.90
27633;DHT22;15046;50.930;13.334;2023-08-01T14:47:48;25.10;99.90
27633;DHT22;15046;50.930;13.334;2023-08-01T14:50:14;25.40;99.90
27633;DHT22;15046;50.930;13.334;2023-08-01T14:52:41;25.60;99.90
27633;DHT22;15046;50.930;13.334;2023-08-01T14:55:08;25.80;99.90
27633;DHT22;15046;50.930;13.334;2023-08-01T14:57:34;26.00;99.90
27633;DHT22;15046;50.930;13.334;2023-08-01T15:00:00;26.20;99.90
27633;DHT22;15046;50.930;13.334;2023-08-01T15:02:27;26.40;99.90
27633;DHT22;15046;50.930;13.334;2023-08-01T15:04:54;26.60;99.90
27633;DHT22;15046;50.930;13.334;2023-08-01T15:07:23;26.10;99.90
27633;DHT22;15046;50.930;13.334;2023-08-01T15:09:50;25.30;98.90
27633;DHT22;15046;50.930;13.334;2023-08-01T15:12:17;24.30;99.00
27633;DHT22;15046;50.930;13.334;2023-08-01T15:14:42;23.60;99.40
27633;DHT22;15046;50.930;13.334;2023-08-01T15:17:08;23.00;99.90
27633;DHT22;15046;50.930;13.334;2023-08-01T15:19:35;22.30;99.90